Portada
METAR-TAF:

METAR-TAF

Aeropuertos :

Halmstad, Suecia

latitud: 56-41N, longitud: 012-50E, altitud: 30 m

Observación

El informe se hizo hace 30 minutos, a las 07:20 UTC
Viento 5 kt del sur, variando entre sur-sureste y oeste-suroeste
Temperatura 16°C
Humedad 68%
Presión 1035 hPa
Visibilidad 10 km o más
sin nubes por debajo de 1500 m y sin presencia de cumulonimbus.

METAR: ESMT 260720Z 19005KT 150V240 CAVOK 16/10 Q1035

Hora: 09:50 (07:50 UTC)

Pronóstico

El informe se hizo hace 2 horas y 43 minutos, a las 05:07 UTC
Pronóstico válido del 26 a las 06 UTC al 26 a las 15 UTC
Viento 6 kt del sur-suroeste
Visibilidad 10 km o más
Nubes dispersas a una altura de 4000 ft

TAF: ESMT 260507Z 2606/2615 20006KT 9999 SCT040

Observaciones y pronósticos meteorológicos de más de 4000 aeropuertos (mensajes METAR y TAF).

Los puntos amarillos y rojos representan las estaciones disponibles.

Ponga el ratón en el punto deseado para ver el nombre de la estación.

Haga clic para ver las observaciones y los pronósticos meteorológicos.

Para cambiar el mapa : haga clic en los botones verdes con una cruz de color negro para hacer un zoom, en el botón verde con un guión para alejar o en las flechas verdes para mapas adyacentes.


METAR-TAF: